createdAt,value
2022-11-13T00:00:04.692Z,42.10
2022-11-13T00:00:15.460Z,42.00
2022-11-13T00:00:26.240Z,42.70
2022-11-13T00:00:37.962Z,44.60
2022-11-13T00:00:50.450Z,44.80
2022-11-13T00:01:02.171Z,45.20
2022-11-13T00:01:12.938Z,43.10
2022-11-13T00:01:23.674Z,42.60
2022-11-13T00:01:34.419Z,41.10
2022-11-13T00:01:46.869Z,41.80
2022-11-13T00:01:59.282Z,41.20
2022-11-13T00:02:10.054Z,41.90
2022-11-13T00:02:20.902Z,42.10
2022-11-13T00:02:32.847Z,40.30
2022-11-13T00:02:46.134Z,40.30
2022-11-13T00:02:58.606Z,41.00
2022-11-13T00:03:09.370Z,41.00
2022-11-13T00:03:20.160Z,41.40
2022-11-13T00:03:30.900Z,42.20
2022-11-13T00:03:41.631Z,42.20
2022-11-13T00:03:52.387Z,42.30
2022-11-13T00:04:03.131Z,41.40
2022-11-13T00:04:14.824Z,42.40
2022-11-13T00:04:25.561Z,43.00
2022-11-13T00:04:36.311Z,42.80
2022-11-13T00:04:47.031Z,42.90
2022-11-13T00:05:00.247Z,42.10
2022-11-13T00:05:11.970Z,41.80
2022-11-13T00:05:22.700Z,42.40
2022-11-13T00:05:33.431Z,42.00
2022-11-13T00:05:45.871Z,42.60
2022-11-13T00:05:56.611Z,42.00
2022-11-13T00:06:09.043Z,43.20
2022-11-13T00:06:21.491Z,42.20
2022-11-13T00:06:32.266Z,40.10
2022-11-13T00:06:43.050Z,39.40
2022-11-13T00:06:58.943Z,39.90
2022-11-13T00:07:09.520Z,40.40
2022-11-13T00:07:20.308Z,40.20
2022-11-13T00:07:31.046Z,41.10
2022-11-13T00:07:41.763Z,40.40
2022-11-13T00:07:52.501Z,41.20
2022-11-13T00:08:03.240Z,41.00
2022-11-13T00:08:13.972Z,41.40
2022-11-13T00:08:26.882Z,41.00
2022-11-13T00:08:40.663Z,41.20
2022-11-13T00:08:52.893Z,42.90
2022-11-13T00:09:06.620Z,41.70
2022-11-13T00:09:18.363Z,40.80
2022-11-13T00:09:29.107Z,41.00
2022-11-13T00:09:40.802Z,41.10
2022-11-13T00:09:53.231Z,39.50
2022-11-13T00:10:04.974Z,39.50
2022-11-13T00:10:16.762Z,40.10
2022-11-13T00:10:28.461Z,40.20
2022-11-13T00:10:40.911Z,40.60
2022-11-13T00:10:51.674Z,40.70
2022-11-13T00:11:02.411Z,38.80
2022-11-13T00:11:14.864Z,39.30
2022-11-13T00:11:27.571Z,40.30
2022-11-13T00:11:38.313Z,41.70
2022-11-13T00:11:49.082Z,41.60
2022-11-13T00:11:59.862Z,41.90
2022-11-13T00:12:11.572Z,40.40
2022-11-13T00:12:22.310Z,40.30
2022-11-13T00:12:34.041Z,39.90
2022-11-13T00:12:47.501Z,39.90
2022-11-13T00:12:58.426Z,40.40
2022-11-13T00:13:09.191Z,39.80
2022-11-13T00:13:19.974Z,40.70
2022-11-13T00:13:30.894Z,39.80
2022-11-13T00:13:41.683Z,40.20
2022-11-13T00:13:52.463Z,41.00
2022-11-13T00:14:04.139Z,41.60
2022-11-13T00:14:14.892Z,42.20
2022-11-13T00:14:25.640Z,41.10
2022-11-13T00:14:36.382Z,40.20
2022-11-13T00:14:47.113Z,39.10
2022-11-13T00:14:57.860Z,38.90
2022-11-13T00:15:09.543Z,39.80
2022-11-13T00:15:21.263Z,39.30
2022-11-13T00:15:32.983Z,38.80
2022-11-13T00:15:44.675Z,38.80
2022-11-13T00:15:55.414Z,39.80
2022-11-13T00:16:06.154Z,40.50
2022-11-13T00:16:17.852Z,40.10
2022-11-13T00:16:28.602Z,40.50
2022-11-13T00:16:41.073Z,40.90
2022-11-13T00:16:53.523Z,40.50
2022-11-13T00:17:04.244Z,39.10
2022-11-13T00:17:15.032Z,37.90
2022-11-13T00:17:26.242Z,38.90
2022-11-13T00:17:37.302Z,39.10
2022-11-13T00:17:48.040Z,38.60
2022-11-13T00:18:00.462Z,37.90
2022-11-13T00:18:11.203Z,36.90
2022-11-13T00:18:21.942Z,37.30
2022-11-13T00:18:32.673Z,37.70
2022-11-13T00:18:45.112Z,37.60
2022-11-13T00:18:57.294Z,36.30
2022-11-13T00:19:10.529Z,36.70
2022-11-13T00:19:22.963Z,35.40
2022-11-13T00:19:33.710Z,34.80
2022-11-13T00:19:45.912Z,34.50
2022-11-13T00:19:56.663Z,35.00
2022-11-13T00:20:08.852Z,34.90
2022-11-13T00:20:19.614Z,34.20
2022-11-13T00:20:30.335Z,33.80
2022-11-13T00:20:41.084Z,34.70
2022-11-13T00:20:52.844Z,35.10
2022-11-13T00:21:05.335Z,35.50
2022-11-13T00:21:17.787Z,36.80
2022-11-13T00:21:28.512Z,35.60
2022-11-13T00:21:39.252Z,34.90
2022-11-13T00:21:50.013Z,34.80
2022-11-13T00:22:00.766Z,35.00
2022-11-13T00:22:11.563Z,34.50
2022-11-13T00:22:22.303Z,33.70
2022-11-13T00:22:33.036Z,35.00
2022-11-13T00:22:43.773Z,35.20
2022-11-13T00:22:54.552Z,35.30
2022-11-13T00:23:07.474Z,35.00
2022-11-13T00:23:20.440Z,35.10
2022-11-13T00:23:31.224Z,34.50
2022-11-13T00:23:42.943Z,34.00
2022-11-13T00:23:53.692Z,34.50
2022-11-13T00:24:04.464Z,35.30
2022-11-13T00:24:15.194Z,35.70
2022-11-13T00:24:25.933Z,35.30
2022-11-13T00:24:36.665Z,34.60
2022-11-13T00:24:47.415Z,35.40
2022-11-13T00:24:58.203Z,36.10
2022-11-13T00:25:08.964Z,36.80
2022-11-13T00:25:19.703Z,35.70
2022-11-13T00:25:30.433Z,35.40
2022-11-13T00:25:41.174Z,35.90
2022-11-13T00:25:51.913Z,35.90
2022-11-13T00:26:02.655Z,35.60
2022-11-13T00:26:13.403Z,35.80
2022-11-13T00:26:24.148Z,36.60
2022-11-13T00:26:35.826Z,36.20
2022-11-13T00:26:48.035Z,36.30
2022-11-13T00:26:58.802Z,35.70
2022-11-13T00:27:10.483Z,35.90
2022-11-13T00:27:22.964Z,37.20
2022-11-13T00:27:34.672Z,37.80
2022-11-13T00:27:46.870Z,37.70
2022-11-13T00:27:57.595Z,38.00
2022-11-13T00:28:10.033Z,37.80
2022-11-13T00:28:20.773Z,38.60
2022-11-13T00:28:32.494Z,38.40
2022-11-13T00:28:43.304Z,37.90
2022-11-13T00:28:54.043Z,37.60
2022-11-13T00:29:06.518Z,38.00
2022-11-13T00:29:21.214Z,38.30
2022-11-13T00:29:34.924Z,37.90
2022-11-13T00:29:48.125Z,37.60
2022-11-13T00:29:59.834Z,37.20
2022-11-13T00:30:17.875Z,37.40
2022-11-13T00:30:29.343Z,38.20
2022-11-13T00:30:40.075Z,38.30
2022-11-13T00:30:50.805Z,38.30
2022-11-13T00:31:02.523Z,39.20
2022-11-13T00:31:14.245Z,39.10
2022-11-13T00:31:26.513Z,38.20
2022-11-13T00:31:38.232Z,38.10
2022-11-13T00:31:49.015Z,38.10
2022-11-13T00:31:59.744Z,36.50
2022-11-13T00:32:10.505Z,36.20
2022-11-13T00:32:22.227Z,36.00
2022-11-13T00:32:32.974Z,36.40
2022-11-13T00:32:43.714Z,36.50
2022-11-13T00:32:54.454Z,36.90
2022-11-13T00:33:05.185Z,37.00
2022-11-13T00:33:26.484Z,36.50
2022-11-13T00:34:01.989Z,35.80
2022-11-13T00:34:19.452Z,36.70
2022-11-13T00:34:45.949Z,37.30
2022-11-13T00:34:53.065Z,36.80
2022-11-13T00:34:54.283Z,36.80
2022-11-13T00:35:05.014Z,37.30
2022-11-13T00:35:15.744Z,37.20
2022-11-13T00:35:26.526Z,37.30
2022-11-13T00:35:37.264Z,38.00
2022-11-13T00:35:48.025Z,38.30
2022-11-13T00:35:59.718Z,37.90
2022-11-13T00:36:10.475Z,36.30
2022-11-13T00:36:25.923Z,35.70
2022-11-13T00:36:38.094Z,35.90
2022-11-13T00:36:48.835Z,36.60
2022-11-13T00:37:00.575Z,35.90
2022-11-13T00:37:11.335Z,36.20
2022-11-13T00:37:23.795Z,36.70
2022-11-13T00:37:34.559Z,36.30
2022-11-13T00:37:45.295Z,35.50
2022-11-13T00:37:56.035Z,36.00
2022-11-13T00:38:06.776Z,36.30
2022-11-13T00:38:17.515Z,36.90
2022-11-13T00:38:29.580Z,36.50
2022-11-13T00:38:41.388Z,36.80
2022-11-13T00:38:52.154Z,36.00
2022-11-13T00:39:02.916Z,35.40
2022-11-13T00:39:14.646Z,34.70
2022-11-13T00:39:27.156Z,34.90
2022-11-13T00:39:41.376Z,36.30
2022-11-13T00:39:59.396Z,36.50
2022-11-13T00:40:11.207Z,35.50
2022-11-13T00:40:23.916Z,34.70
2022-11-13T00:40:36.335Z,33.80
2022-11-13T00:40:47.095Z,34.20
2022-11-13T00:40:57.855Z,34.70
2022-11-13T00:41:10.285Z,34.60
2022-11-13T00:41:21.060Z,33.70
2022-11-13T00:41:31.797Z,34.20
2022-11-13T00:41:44.726Z,34.30
2022-11-13T00:41:56.936Z,33.90
2022-11-13T00:42:07.706Z,34.00
2022-11-13T00:42:18.591Z,33.80
2022-11-13T00:42:29.410Z,34.60
2022-11-13T00:42:40.136Z,34.90
2022-11-13T00:42:50.866Z,35.00
2022-11-13T00:43:01.619Z,34.10
2022-11-13T00:43:13.325Z,32.80
2022-11-13T00:43:25.058Z,33.00
2022-11-13T00:43:35.785Z,33.30
2022-11-13T00:43:48.505Z,33.50
2022-11-13T00:44:01.226Z,34.10
2022-11-13T00:44:11.956Z,35.10
2022-11-13T00:44:22.725Z,35.50
2022-11-13T00:44:33.494Z,35.90
2022-11-13T00:44:44.246Z,35.20
2022-11-13T00:44:54.977Z,34.70
2022-11-13T00:45:05.726Z,34.30
2022-11-13T00:45:16.475Z,35.50
2022-11-13T00:45:27.215Z,35.30
2022-11-13T00:45:37.946Z,34.90
2022-11-13T00:45:48.704Z,34.00
2022-11-13T00:45:59.464Z,33.00
2022-11-13T00:46:10.205Z,32.10
2022-11-13T00:46:20.938Z,32.60
2022-11-13T00:46:33.358Z,33.40
2022-11-13T00:46:44.097Z,33.70
2022-11-13T00:46:54.838Z,33.30
2022-11-13T00:47:05.596Z,33.60
2022-11-13T00:47:16.337Z,33.30
2022-11-13T00:47:27.087Z,33.70
2022-11-13T00:47:39.316Z,33.30
2022-11-13T00:47:50.036Z,34.40
2022-11-13T00:48:02.480Z,34.90
2022-11-13T00:48:14.926Z,33.70
2022-11-13T00:48:26.026Z,33.60
2022-11-13T00:48:37.890Z,34.70
2022-11-13T00:48:48.617Z,34.50
2022-11-13T00:48:59.356Z,34.40
2022-11-13T00:49:11.787Z,33.40
2022-11-13T00:49:22.517Z,33.60
2022-11-13T00:49:33.290Z,33.50
2022-11-13T00:49:45.716Z,33.60
2022-11-13T00:49:57.427Z,32.90
2022-11-13T00:50:10.147Z,32.60
2022-11-13T00:50:20.933Z,31.50
2022-11-13T00:50:31.707Z,33.00
2022-11-13T00:50:42.457Z,32.40
2022-11-13T00:50:53.197Z,33.00
2022-11-13T00:51:03.947Z,32.30
2022-11-13T00:51:14.688Z,33.20
2022-11-13T00:51:25.422Z,32.50
2022-11-13T00:51:36.189Z,32.60
2022-11-13T00:51:47.898Z,31.80
2022-11-13T00:51:58.647Z,31.50
2022-11-13T00:52:09.397Z,31.60
2022-11-13T00:52:21.839Z,32.60
2022-11-13T00:52:34.287Z,32.10
2022-11-13T00:52:45.987Z,31.70
2022-11-13T00:52:56.756Z,31.60
2022-11-13T00:53:07.509Z,32.00
2022-11-13T00:53:18.447Z,31.80
2022-11-13T00:53:29.187Z,32.10
2022-11-13T00:53:41.617Z,32.70
2022-11-13T00:53:52.397Z,34.00
2022-11-13T00:54:04.099Z,34.00
2022-11-13T00:54:14.896Z,32.60
2022-11-13T00:54:26.620Z,31.70
2022-11-13T00:54:37.407Z,32.40
2022-11-13T00:54:48.148Z,32.90
2022-11-13T00:54:58.898Z,33.80
2022-11-13T00:55:09.628Z,32.80
2022-11-13T00:55:20.366Z,32.90
2022-11-13T00:55:31.087Z,32.90
2022-11-13T00:55:41.829Z,32.60
2022-11-13T00:55:52.627Z,33.20
2022-11-13T00:56:03.367Z,33.60
2022-11-13T00:56:15.919Z,34.00
2022-11-13T00:56:26.657Z,34.50
2022-11-13T00:56:38.368Z,34.30
2022-11-13T00:56:49.166Z,34.00
2022-11-13T00:56:59.907Z,33.60
2022-11-13T00:57:10.636Z,33.70
2022-11-13T00:57:21.377Z,32.90
2022-11-13T00:57:33.128Z,32.20
2022-11-13T00:57:43.867Z,32.90
2022-11-13T00:57:54.605Z,33.10
2022-11-13T00:58:07.029Z,32.40
2022-11-13T00:58:18.787Z,33.20
2022-11-13T00:58:30.851Z,34.10
2022-11-13T00:58:41.698Z,34.20
2022-11-13T00:58:52.437Z,33.30
2022-11-13T00:59:03.177Z,33.10
2022-11-13T00:59:13.939Z,32.20
2022-11-13T00:59:24.676Z,33.00
2022-11-13T00:59:35.398Z,32.20
2022-11-13T00:59:46.138Z,32.30
2022-11-13T00:59:58.299Z,31.80
2022-11-13T01:00:09.089Z,31.60
2022-11-13T01:00:21.807Z,31.20
2022-11-13T01:00:34.519Z,30.40
2022-11-13T01:00:46.266Z,30.10
2022-11-13T01:00:57.097Z,31.10
2022-11-13T01:01:10.842Z,31.40
2022-11-13T01:01:22.630Z,29.90
2022-11-13T01:01:34.408Z,28.80
2022-11-13T01:01:46.141Z,29.20
2022-11-13T01:01:56.960Z,29.20
2022-11-13T01:02:07.791Z,30.40
2022-11-13T01:02:18.578Z,30.40
2022-11-13T01:02:31.019Z,30.30
2022-11-13T01:02:41.757Z,30.00
2022-11-13T01:02:54.488Z,31.10
2022-11-13T01:03:05.228Z,31.30
2022-11-13T01:03:15.997Z,31.30
2022-11-13T01:03:27.729Z,31.00
2022-11-13T01:03:38.526Z,31.40
2022-11-13T01:03:49.260Z,31.60
2022-11-13T01:04:01.995Z,31.50
2022-11-13T01:04:14.448Z,30.30
2022-11-13T01:04:26.678Z,29.40
2022-11-13T01:04:38.899Z,30.20
2022-11-13T01:04:50.630Z,29.90
2022-11-13T01:05:01.411Z,30.00
2022-11-13T01:05:13.153Z,30.10
2022-11-13T01:05:27.373Z,30.00
2022-11-13T01:05:39.099Z,30.50
2022-11-13T01:05:49.851Z,31.20
2022-11-13T01:06:01.540Z,31.80
2022-11-13T01:06:13.239Z,31.00
2022-11-13T01:06:24.000Z,30.40
2022-11-13T01:06:34.770Z,30.10
2022-11-13T01:06:47.510Z,29.80
2022-11-13T01:07:00.723Z,29.80
2022-11-13T01:07:12.448Z,29.90
2022-11-13T01:07:23.238Z,30.30
2022-11-13T01:07:34.049Z,31.10
2022-11-13T01:07:44.859Z,31.40
2022-11-13T01:07:56.570Z,30.70
2022-11-13T01:08:07.329Z,30.40
2022-11-13T01:08:18.089Z,31.60
2022-11-13T01:08:29.115Z,31.30
2022-11-13T01:08:40.072Z,30.50
2022-11-13T01:08:50.849Z,28.50
2022-11-13T01:09:01.600Z,29.40
2022-11-13T01:09:14.789Z,29.90
2022-11-13T01:09:25.528Z,30.70
2022-11-13T01:09:36.280Z,29.70
2022-11-13T01:09:47.042Z,30.30
2022-11-13T01:09:57.819Z,30.40
2022-11-13T01:10:08.549Z,31.40
2022-11-13T01:10:19.290Z,31.10
2022-11-13T01:10:30.038Z,31.40
2022-11-13T01:10:40.777Z,31.10
2022-11-13T01:10:54.479Z,30.80
2022-11-13T01:11:05.248Z,29.90
2022-11-13T01:11:16.032Z,29.80
2022-11-13T01:11:28.499Z,29.90
2022-11-13T01:11:40.979Z,30.60
2022-11-13T01:11:54.184Z,29.90
2022-11-13T01:12:05.910Z,29.30
2022-11-13T01:12:16.658Z,29.20
2022-11-13T01:12:28.401Z,30.30
2022-11-13T01:12:39.170Z,30.70
2022-11-13T01:12:49.910Z,31.20
2022-11-13T01:13:00.670Z,30.50
2022-11-13T01:13:11.420Z,29.60
2022-11-13T01:13:24.609Z,29.30
2022-11-13T01:13:35.349Z,29.60
2022-11-13T01:13:46.099Z,29.10
2022-11-13T01:13:58.610Z,29.40
2022-11-13T01:14:09.350Z,29.00
2022-11-13T01:14:20.089Z,29.10
2022-11-13T01:14:31.831Z,29.60
2022-11-13T01:14:42.610Z,29.60
2022-11-13T01:14:53.360Z,29.90
2022-11-13T01:15:04.141Z,29.60
2022-11-13T01:15:14.920Z,29.00
2022-11-13T01:15:25.660Z,28.70
2022-11-13T01:15:36.390Z,28.40
2022-11-13T01:15:49.597Z,28.00
2022-11-13T01:16:00.330Z,28.20
2022-11-13T01:16:11.074Z,28.20
2022-11-13T01:16:21.800Z,28.80
2022-11-13T01:16:32.567Z,28.10
2022-11-13T01:16:43.321Z,28.20
2022-11-13T01:16:54.068Z,26.70
2022-11-13T01:17:06.520Z,26.60
2022-11-13T01:17:17.297Z,26.40
2022-11-13T01:17:29.029Z,27.30
2022-11-13T01:17:39.830Z,26.80
2022-11-13T01:17:50.598Z,27.00
2022-11-13T01:18:03.020Z,27.30
2022-11-13T01:18:13.797Z,27.50
2022-11-13T01:18:24.809Z,27.20
2022-11-13T01:18:35.600Z,27.00
2022-11-13T01:18:46.344Z,26.60
2022-11-13T01:18:57.080Z,26.50
2022-11-13T01:19:07.810Z,26.30
2022-11-13T01:19:18.539Z,26.30
2022-11-13T01:19:29.271Z,27.10
2022-11-13T01:19:40.968Z,27.80
2022-11-13T01:19:51.704Z,28.80
2022-11-13T01:20:03.411Z,28.30
2022-11-13T01:20:14.190Z,27.50
2022-11-13T01:20:25.881Z,27.10
2022-11-13T01:20:36.613Z,27.50
2022-11-13T01:20:47.380Z,27.70
2022-11-13T01:20:58.122Z,27.70
2022-11-13T01:21:10.540Z,27.00
2022-11-13T01:21:23.271Z,26.60
2022-11-13T01:21:34.961Z,26.30
2022-11-13T01:21:47.441Z,27.40
2022-11-13T01:21:58.176Z,27.90
2022-11-13T01:22:10.611Z,27.00
2022-11-13T01:22:23.092Z,26.70
2022-11-13T01:22:35.541Z,26.60
2022-11-13T01:22:46.292Z,26.70
2022-11-13T01:22:57.070Z,26.40
2022-11-13T01:23:09.522Z,26.00
2022-11-13T01:23:20.322Z,26.20
2022-11-13T01:23:31.070Z,27.20
2022-11-13T01:23:44.252Z,27.80
2022-11-13T01:23:55.002Z,27.60
2022-11-13T01:24:05.740Z,27.00
2022-11-13T01:24:18.203Z,26.70
2022-11-13T01:24:29.901Z,26.40
2022-11-13T01:24:40.673Z,27.00
2022-11-13T01:24:53.104Z,27.30
2022-11-13T01:25:04.811Z,29.10
2022-11-13T01:25:16.502Z,29.90
2022-11-13T01:25:27.260Z,30.00
2022-11-13T01:25:38.082Z,29.10
2022-11-13T01:25:49.825Z,28.90
2022-11-13T01:26:00.542Z,27.90
2022-11-13T01:26:11.303Z,27.40
2022-11-13T01:26:22.041Z,27.80
2022-11-13T01:26:32.772Z,27.60
2022-11-13T01:26:43.501Z,27.10
2022-11-13T01:26:54.229Z,27.60
2022-11-13T01:27:06.432Z,26.80
2022-11-13T01:27:18.375Z,26.20
2022-11-13T01:27:30.832Z,25.80
2022-11-13T01:27:41.633Z,26.70
2022-11-13T01:27:54.072Z,26.80
2022-11-13T01:28:05.764Z,26.40
2022-11-13T01:28:17.481Z,26.20
2022-11-13T01:28:30.716Z,26.30
2022-11-13T01:28:41.531Z,26.00
2022-11-13T01:28:52.285Z,25.50
2022-11-13T01:29:03.022Z,26.70
2022-11-13T01:29:13.751Z,26.50
2022-11-13T01:29:24.510Z,27.20
2022-11-13T01:29:36.223Z,26.40
2022-11-13T01:29:46.962Z,26.80
2022-11-13T01:29:57.700Z,27.50
2022-11-13T01:30:10.131Z,27.50
2022-11-13T01:30:20.870Z,26.60
2022-11-13T01:30:31.612Z,27.40
2022-11-13T01:30:42.380Z,27.30
2022-11-13T01:30:53.121Z,27.20
2022-11-13T01:31:03.891Z,26.20
2022-11-13T01:31:14.632Z,26.80
2022-11-13T01:31:26.343Z,26.80
2022-11-13T01:31:41.083Z,27.20
2022-11-13T01:31:53.522Z,26.00
2022-11-13T01:32:04.325Z,25.80
2022-11-13T01:32:15.072Z,26.50
2022-11-13T01:32:27.502Z,26.60
2022-11-13T01:32:39.922Z,27.10
2022-11-13T01:32:50.654Z,26.00
2022-11-13T01:33:01.394Z,26.30
2022-11-13T01:33:12.122Z,26.70
2022-11-13T01:33:22.920Z,26.70
2022-11-13T01:33:33.654Z,25.80
2022-11-13T01:33:44.412Z,26.40
2022-11-13T01:33:55.183Z,26.40
2022-11-13T01:34:05.932Z,27.40
2022-11-13T01:34:18.381Z,26.30
2022-11-13T01:34:30.832Z,26.40
2022-11-13T01:34:42.588Z,24.80
2022-11-13T01:34:53.323Z,24.50
2022-11-13T01:35:05.064Z,24.80
2022-11-13T01:35:17.285Z,25.30
2022-11-13T01:35:28.033Z,24.10
2022-11-13T01:35:38.772Z,24.30
2022-11-13T01:35:49.502Z,24.60
2022-11-13T01:36:00.234Z,25.10
2022-11-13T01:36:12.655Z,24.50
2022-11-13T01:36:23.414Z,23.30
2022-11-13T01:36:35.853Z,23.00
2022-11-13T01:36:46.614Z,23.30
2022-11-13T01:36:59.023Z,24.30
2022-11-13T01:37:11.233Z,24.40
2022-11-13T01:37:21.964Z,24.50
2022-11-13T01:37:32.705Z,23.70
2022-11-13T01:37:45.241Z,23.80
2022-11-13T01:37:55.983Z,24.00
2022-11-13T01:38:08.405Z,23.30
2022-11-13T01:38:20.843Z,22.70
2022-11-13T01:38:35.900Z,22.50
2022-11-13T01:38:47.135Z,22.90
2022-11-13T01:38:57.874Z,22.90
2022-11-13T01:39:08.644Z,22.20
2022-11-13T01:39:19.383Z,22.50
2022-11-13T01:39:30.113Z,23.40
2022-11-13T01:39:40.854Z,24.00
2022-11-13T01:39:51.663Z,23.10
2022-11-13T01:40:02.403Z,22.70
2022-11-13T01:40:13.145Z,22.80
2022-11-13T01:40:24.862Z,23.20
2022-11-13T01:40:35.602Z,22.70
2022-11-13T01:40:46.408Z,23.20
2022-11-13T01:40:58.174Z,22.90
2022-11-13T01:41:08.953Z,23.10
2022-11-13T01:41:23.332Z,22.60
2022-11-13T01:41:34.588Z,22.60
2022-11-13T01:41:45.320Z,23.10
2022-11-13T01:41:59.064Z,23.10
2022-11-13T01:42:09.823Z,23.80
2022-11-13T01:42:22.253Z,22.70
2022-11-13T01:42:33.014Z,23.10
2022-11-13T01:42:43.744Z,23.20
2022-11-13T01:42:54.492Z,23.80
2022-11-13T01:43:05.243Z,24.00
2022-11-13T01:43:15.984Z,25.10
2022-11-13T01:43:26.731Z,25.40
2022-11-13T01:43:39.183Z,25.50
2022-11-13T01:43:51.673Z,24.50
2022-11-13T01:44:02.413Z,23.40
2022-11-13T01:44:13.174Z,23.70
2022-11-13T01:44:25.892Z,24.10
2022-11-13T01:44:36.643Z,23.40
2022-11-13T01:44:47.412Z,23.80
2022-11-13T01:44:59.894Z,23.00
2022-11-13T01:45:10.644Z,23.80
2022-11-13T01:45:22.355Z,23.80
2022-11-13T01:45:34.804Z,24.30
2022-11-13T01:45:46.514Z,23.80
2022-11-13T01:45:57.254Z,23.70
2022-11-13T01:46:07.996Z,23.80
2022-11-13T01:46:21.203Z,24.40
2022-11-13T01:46:33.644Z,24.70
2022-11-13T01:46:45.851Z,24.00
2022-11-13T01:46:57.585Z,23.90
2022-11-13T01:47:08.334Z,23.80
2022-11-13T01:47:20.034Z,23.80
2022-11-13T01:47:30.773Z,24.30
2022-11-13T01:47:41.508Z,24.40
2022-11-13T01:47:52.274Z,23.80
2022-11-13T01:48:04.025Z,23.90
2022-11-13T01:48:14.767Z,23.90
2022-11-13T01:48:25.845Z,23.60
2022-11-13T01:48:36.755Z,23.30
2022-11-13T01:48:47.514Z,23.70
2022-11-13T01:48:58.284Z,23.10
2022-11-13T01:49:11.493Z,22.90
2022-11-13T01:49:23.915Z,23.00
2022-11-13T01:49:34.914Z,23.70
2022-11-13T01:49:46.595Z,24.00
2022-11-13T01:49:57.354Z,24.00
2022-11-13T01:50:08.096Z,24.80
2022-11-13T01:50:18.833Z,24.80
2022-11-13T01:50:29.595Z,24.90
2022-11-13T01:50:40.323Z,25.30
2022-11-13T01:50:51.055Z,25.70
2022-11-13T01:51:01.793Z,26.20
2022-11-13T01:51:12.518Z,25.60
2022-11-13T01:51:23.265Z,26.00
2022-11-13T01:51:34.023Z,25.70
2022-11-13T01:51:45.705Z,26.10
2022-11-13T01:51:57.353Z,25.00
2022-11-13T01:52:10.322Z,24.80
2022-11-13T01:52:23.535Z,24.50
2022-11-13T01:52:35.245Z,24.20
2022-11-13T01:52:47.945Z,24.00
2022-11-13T01:52:58.685Z,25.10
2022-11-13T01:53:10.884Z,25.20
2022-11-13T01:53:23.315Z,24.90
2022-11-13T01:53:34.085Z,23.80
2022-11-13T01:53:44.834Z,23.60
2022-11-13T01:53:56.585Z,24.30
2022-11-13T01:54:07.326Z,25.10
2022-11-13T01:54:18.133Z,24.90
2022-11-13T01:54:29.815Z,25.50
2022-11-13T01:54:42.290Z,25.00
2022-11-13T01:54:53.027Z,24.50
2022-11-13T01:55:03.834Z,24.80
2022-11-13T01:55:17.458Z,25.10
2022-11-13T01:55:28.208Z,25.40
2022-11-13T01:55:38.949Z,25.80
2022-11-13T01:55:49.684Z,25.20
2022-11-13T01:56:00.427Z,25.50
2022-11-13T01:56:11.179Z,24.80
2022-11-13T01:56:23.602Z,25.20
2022-11-13T01:56:34.345Z,25.10
2022-11-13T01:56:45.075Z,25.40
2022-11-13T01:56:55.856Z,24.80
2022-11-13T01:57:08.274Z,24.70
2022-11-13T01:57:19.056Z,25.10
2022-11-13T01:57:30.766Z,25.50
2022-11-13T01:57:41.542Z,24.80
2022-11-13T01:57:52.427Z,24.90
2022-11-13T01:58:03.164Z,25.00
2022-11-13T01:58:13.915Z,25.50
2022-11-13T01:58:25.934Z,25.70
2022-11-13T01:58:38.545Z,26.80
2022-11-13T01:58:50.995Z,27.30
2022-11-13T01:59:03.406Z,26.60
2022-11-13T01:59:14.149Z,27.00
2022-11-13T01:59:24.913Z,26.50
2022-11-13T01:59:35.716Z,27.30
2022-11-13T01:59:46.455Z,27.40
2022-11-13T01:59:58.220Z,28.20
2022-11-13T02:00:09.945Z,27.30
2022-11-13T02:00:20.685Z,27.70
2022-11-13T02:00:31.416Z,28.70
2022-11-13T02:00:43.108Z,28.30
2022-11-13T02:00:53.926Z,28.10
2022-11-13T02:01:04.686Z,27.40
2022-11-13T02:01:16.438Z,27.40
2022-11-13T02:01:27.225Z,27.60
2022-11-13T02:01:39.042Z,27.60
2022-11-13T02:01:49.872Z,27.80
2022-11-13T02:02:00.704Z,28.20
2022-11-13T02:02:11.498Z,27.30
2022-11-13T02:02:22.237Z,26.40
2022-11-13T02:02:34.705Z,25.00
2022-11-13T02:02:47.427Z,26.50
2022-11-13T02:02:58.193Z,27.10
2022-11-13T02:03:10.606Z,26.50
2022-11-13T02:03:22.309Z,26.20
2022-11-13T02:03:34.736Z,26.90
2022-11-13T02:03:47.666Z,26.90
2022-11-13T02:03:58.407Z,26.50
2022-11-13T02:04:09.146Z,26.20
2022-11-13T02:04:21.852Z,26.50
2022-11-13T02:04:32.598Z,26.60
2022-11-13T02:04:44.308Z,26.90
2022-11-13T02:04:55.056Z,26.50
2022-11-13T02:05:05.828Z,27.00
2022-11-13T02:05:16.566Z,26.60
2022-11-13T02:05:28.266Z,26.20
2022-11-13T02:05:41.027Z,26.10
2022-11-13T02:05:51.802Z,26.60
2022-11-13T02:06:02.529Z,27.40
2022-11-13T02:06:14.959Z,26.70
2022-11-13T02:06:27.377Z,26.50
2022-11-13T02:06:39.165Z,27.20
2022-11-13T02:06:50.941Z,27.30
2022-11-13T02:07:01.792Z,27.20
2022-11-13T02:07:12.610Z,26.80
2022-11-13T02:07:24.331Z,27.30
2022-11-13T02:07:35.096Z,27.00
2022-11-13T02:07:45.856Z,27.70
2022-11-13T02:07:58.327Z,27.80
2022-11-13T02:08:09.078Z,28.60
2022-11-13T02:08:19.815Z,27.10
2022-11-13T02:08:31.609Z,27.10
2022-11-13T02:08:43.438Z,27.50
2022-11-13T02:08:54.196Z,28.50
2022-11-13T02:09:04.957Z,28.60
2022-11-13T02:09:17.398Z,28.50
2022-11-13T02:09:28.125Z,27.40
2022-11-13T02:09:39.847Z,27.50
2022-11-13T02:09:52.275Z,27.00
2022-11-13T02:10:03.007Z,27.50
2022-11-13T02:10:15.438Z,28.30
2022-11-13T02:10:26.210Z,29.20
2022-11-13T02:10:36.956Z,29.30
2022-11-13T02:10:49.667Z,29.00
2022-11-13T02:11:01.359Z,28.50
2022-11-13T02:11:12.087Z,28.00
2022-11-13T02:11:23.777Z,27.20
2022-11-13T02:11:34.558Z,26.40
2022-11-13T02:11:46.748Z,27.10
2022-11-13T02:11:57.496Z,27.70
2022-11-13T02:12:08.237Z,27.60
2022-11-13T02:12:19.957Z,27.20
2022-11-13T02:12:30.718Z,28.00
2022-11-13T02:12:43.156Z,28.00
2022-11-13T02:12:55.614Z,27.10
2022-11-13T02:13:08.321Z,26.40
2022-11-13T02:13:20.048Z,28.00
2022-11-13T02:13:31.742Z,28.80
2022-11-13T02:13:42.477Z,29.40
2022-11-13T02:13:54.936Z,30.50
2022-11-13T02:14:05.712Z,31.40
2022-11-13T02:14:17.468Z,31.40
2022-11-13T02:14:28.228Z,31.00
2022-11-13T02:14:39.957Z,30.90
2022-11-13T02:14:50.718Z,30.90
2022-11-13T02:15:02.428Z,31.10
2022-11-13T02:15:13.187Z,31.20
2022-11-13T02:15:25.327Z,32.00
2022-11-13T02:15:36.066Z,30.70
2022-11-13T02:15:46.798Z,31.80
2022-11-13T02:16:00.597Z,31.50
2022-11-13T02:16:11.347Z,30.20
2022-11-13T02:16:23.058Z,29.90
2022-11-13T02:16:34.768Z,29.60
2022-11-13T02:16:45.538Z,29.20
2022-11-13T02:16:56.278Z,29.00
2022-11-13T02:17:07.030Z,29.70
2022-11-13T02:17:19.448Z,30.30
2022-11-13T02:17:31.198Z,29.20
2022-11-13T02:17:41.938Z,28.60
2022-11-13T02:17:54.385Z,28.00
2022-11-13T02:18:06.151Z,29.40
2022-11-13T02:18:16.906Z,29.80
2022-11-13T02:18:27.899Z,28.40
2022-11-13T02:18:39.757Z,27.80
2022-11-13T02:18:50.498Z,28.30
2022-11-13T02:19:02.959Z,29.00
2022-11-13T02:19:13.749Z,29.70
2022-11-13T02:19:24.496Z,30.00
2022-11-13T02:19:36.947Z,30.20
2022-11-13T02:19:48.638Z,30.20
2022-11-13T02:19:59.408Z,29.40
2022-11-13T02:20:11.109Z,29.80
2022-11-13T02:20:21.868Z,30.30
2022-11-13T02:20:32.610Z,30.50
2022-11-13T02:20:45.069Z,30.00
2022-11-13T02:20:57.497Z,30.30
2022-11-13T02:21:09.190Z,30.00
2022-11-13T02:21:19.979Z,29.90
2022-11-13T02:21:30.751Z,29.70
2022-11-13T02:21:41.486Z,29.00
2022-11-13T02:21:54.698Z,28.00
2022-11-13T02:22:05.442Z,30.10
2022-11-13T02:22:16.179Z,30.70
2022-11-13T02:22:26.919Z,30.00
2022-11-13T02:22:37.680Z,30.10
2022-11-13T02:22:48.458Z,30.90
2022-11-13T02:23:00.169Z,30.60
2022-11-13T02:23:14.399Z,30.20
2022-11-13T02:23:26.860Z,30.00
2022-11-13T02:23:37.616Z,30.10
2022-11-13T02:23:48.350Z,30.90
2022-11-13T02:24:00.057Z,30.10
2022-11-13T02:24:12.518Z,29.70
2022-11-13T02:24:23.331Z,30.10
2022-11-13T02:24:37.785Z,30.50
2022-11-13T02:24:52.327Z,31.00
2022-11-13T02:25:04.489Z,30.80
2022-11-13T02:25:15.249Z,30.50
2022-11-13T02:25:26.019Z,30.10
2022-11-13T02:25:36.759Z,30.10
2022-11-13T02:25:47.500Z,30.90
2022-11-13T02:25:58.259Z,31.20
2022-11-13T02:26:09.031Z,31.60
2022-11-13T02:26:21.240Z,31.30
2022-11-13T02:26:31.984Z,30.80
2022-11-13T02:26:44.434Z,31.00
2022-11-13T02:26:56.879Z,31.40
2022-11-13T02:27:07.628Z,31.20
2022-11-13T02:27:20.079Z,30.90
2022-11-13T02:27:30.839Z,30.50